createdAt,value
2023-03-11T00:00:55.109Z,2.30
2023-03-11T00:03:25.635Z,2.40
2023-03-11T00:05:53.509Z,2.40
2023-03-11T00:08:23.866Z,2.50
2023-03-11T00:11:00.187Z,2.50
2023-03-11T00:13:28.587Z,2.50
2023-03-11T00:15:56.535Z,2.60
2023-03-11T00:18:26.823Z,2.60
2023-03-11T00:20:55.344Z,2.40
2023-03-11T00:23:22.397Z,2.50
2023-03-11T00:25:49.234Z,2.60
2023-03-11T00:28:16.665Z,2.50
2023-03-11T00:30:45.181Z,2.50
2023-03-11T00:33:14.562Z,2.50
2023-03-11T00:35:41.932Z,2.50
2023-03-11T00:38:12.963Z,2.50
2023-03-11T00:40:40.158Z,2.40
2023-03-11T00:43:06.860Z,2.40
2023-03-11T00:45:36.020Z,2.30
2023-03-11T00:48:02.915Z,2.30
2023-03-11T00:50:32.761Z,2.10
2023-03-11T00:53:00.108Z,2.00
2023-03-11T00:55:32.765Z,2.10
2023-03-11T00:58:06.642Z,2.00
2023-03-11T01:00:42.901Z,2.00
2023-03-11T01:03:09.698Z,1.90
2023-03-11T01:05:36.430Z,1.90
2023-03-11T01:08:03.852Z,1.70
2023-03-11T01:10:32.653Z,1.70
2023-03-11T01:12:59.510Z,1.70
2023-03-11T01:15:33.415Z,1.70
2023-03-11T01:18:00.664Z,1.80
2023-03-11T01:20:27.919Z,1.80
2023-03-11T01:22:54.992Z,1.90
2023-03-11T01:25:23.310Z,1.90
2023-03-11T01:27:51.008Z,1.90
2023-03-11T01:30:23.548Z,1.80
2023-03-11T01:32:52.255Z,1.90
2023-03-11T01:35:21.896Z,1.80
2023-03-11T01:37:48.652Z,1.70
2023-03-11T01:40:42.774Z,1.70
2023-03-11T01:43:36.600Z,1.60
2023-03-11T01:46:16.481Z,1.60
2023-03-11T01:48:59.890Z,1.40
2023-03-11T01:51:34.567Z,1.30
2023-03-11T01:54:06.791Z,1.10
2023-03-11T01:56:35.219Z,1.40
2023-03-11T01:59:02.437Z,1.30
2023-03-11T02:01:29.556Z,1.30
2023-03-11T02:03:58.730Z,1.30
2023-03-11T02:06:26.434Z,1.30
2023-03-11T02:08:54.892Z,1.20
2023-03-11T02:11:28.514Z,1.20
2023-03-11T02:14:00.127Z,1.10
2023-03-11T02:16:27.189Z,1.00
2023-03-11T02:18:54.159Z,1.10
2023-03-11T02:21:28.591Z,1.10
2023-03-11T02:23:58.646Z,1.10
2023-03-11T02:26:40.934Z,1.20
2023-03-11T02:29:09.878Z,1.20
2023-03-11T02:31:42.779Z,1.20
2023-03-11T02:34:20.103Z,1.20
2023-03-11T02:36:48.783Z,1.20
2023-03-11T02:39:15.850Z,1.20
2023-03-11T02:41:46.846Z,1.20
2023-03-11T02:44:15.533Z,1.20
2023-03-11T02:46:43.082Z,1.20
2023-03-11T02:49:11.827Z,1.30
2023-03-11T02:51:38.529Z,1.30
2023-03-11T02:54:05.949Z,1.20
2023-03-11T02:56:34.083Z,1.20
2023-03-11T02:59:00.802Z,1.20
2023-03-11T03:01:28.810Z,1.10
2023-03-11T03:03:55.667Z,1.20
2023-03-11T03:06:22.591Z,1.20
2023-03-11T03:08:51.370Z,1.20
2023-03-11T03:11:18.240Z,1.30
2023-03-11T03:13:46.118Z,1.30
2023-03-11T03:16:13.079Z,1.30
2023-03-11T03:18:39.854Z,1.30
2023-03-11T03:21:08.771Z,1.30
2023-03-11T03:23:37.625Z,1.30
2023-03-11T03:26:07.541Z,1.30
2023-03-11T03:28:37.424Z,1.10
2023-03-11T03:31:07.427Z,1.10
2023-03-11T03:33:36.114Z,1.00
2023-03-11T03:36:13.440Z,1.00
2023-03-11T03:38:56.726Z,1.00
2023-03-11T03:41:26.367Z,0.90
2023-03-11T03:43:54.663Z,0.90
2023-03-11T03:46:22.603Z,0.90
2023-03-11T03:48:51.537Z,0.90
2023-03-11T03:51:18.517Z,0.90
2023-03-11T03:53:58.508Z,0.80
2023-03-11T03:56:26.330Z,0.80
2023-03-11T03:58:53.810Z,0.70
2023-03-11T04:01:22.056Z,0.70
2023-03-11T04:03:48.892Z,0.70
2023-03-11T04:06:23.517Z,0.70
2023-03-11T04:08:57.351Z,0.70
2023-03-11T04:11:28.909Z,0.60
2023-03-11T04:13:56.307Z,0.50
2023-03-11T04:16:24.147Z,0.50
2023-03-11T04:18:54.791Z,0.40
2023-03-11T04:21:22.059Z,0.40
2023-03-11T04:23:48.925Z,0.40
2023-03-11T04:26:17.738Z,0.40
2023-03-11T04:28:44.535Z,0.40
2023-03-11T04:31:12.483Z,0.30
2023-03-11T04:33:39.495Z,0.30
2023-03-11T04:36:09.749Z,0.40
2023-03-11T04:38:37.898Z,0.30
2023-03-11T04:41:07.313Z,0.30
2023-03-11T04:43:36.570Z,0.30
2023-03-11T04:46:03.981Z,0.20
2023-03-11T04:48:30.966Z,0.20
2023-03-11T04:50:58.042Z,0.30
2023-03-11T04:53:25.307Z,0.30
2023-03-11T04:55:53.745Z,0.10
2023-03-11T04:58:20.960Z,0.10
2023-03-11T05:00:48.199Z,0.00
2023-03-11T05:03:15.387Z,0.00
2023-03-11T05:05:42.218Z,0.00
2023-03-11T05:08:09.297Z,0.00
2023-03-11T05:10:36.668Z,0.00
2023-03-11T05:13:06.072Z,0.00
2023-03-11T05:15:37.526Z,0.00
2023-03-11T05:18:05.190Z,0.00
2023-03-11T05:20:33.261Z,-0.10
2023-03-11T05:23:00.151Z,-0.10
2023-03-11T05:25:29.188Z,-0.10
2023-03-11T05:27:56.194Z,0.00
2023-03-11T05:30:23.066Z,0.00
2023-03-11T05:32:50.177Z,0.00
2023-03-11T05:35:18.031Z,-0.10
2023-03-11T05:37:44.829Z,-0.20
2023-03-11T05:40:12.443Z,-0.20
2023-03-11T05:42:41.258Z,-0.30
2023-03-11T05:45:09.960Z,-0.20
2023-03-11T05:47:38.236Z,-0.20
2023-03-11T05:50:06.432Z,-0.10
2023-03-11T05:52:33.863Z,-0.10
2023-03-11T05:55:00.990Z,-0.10
2023-03-11T05:57:29.749Z,0.00
2023-03-11T05:59:56.883Z,-0.10
2023-03-11T06:02:24.315Z,-0.10
2023-03-11T06:04:51.245Z,-0.20
2023-03-11T06:07:18.087Z,-0.20
2023-03-11T06:09:50.099Z,-0.20
2023-03-11T06:12:18.565Z,-0.20
2023-03-11T06:15:01.163Z,-0.10
2023-03-11T06:17:30.289Z,0.00
2023-03-11T06:19:57.445Z,0.00
2023-03-11T06:22:24.245Z,0.00
2023-03-11T06:24:50.973Z,0.00
2023-03-11T06:27:18.157Z,0.00
2023-03-11T06:29:46.604Z,0.00
2023-03-11T06:32:14.541Z,0.00
2023-03-11T06:34:41.261Z,0.00
2023-03-11T06:37:08.076Z,0.00
2023-03-11T06:39:34.729Z,0.00
2023-03-11T06:42:01.440Z,0.10
2023-03-11T06:44:29.481Z,0.10
2023-03-11T06:46:56.161Z,0.10
2023-03-11T06:49:22.869Z,0.10
2023-03-11T06:51:49.543Z,0.20
2023-03-11T06:54:16.338Z,0.20
2023-03-11T06:56:43.132Z,0.10
2023-03-11T06:59:09.965Z,0.20
2023-03-11T07:01:36.878Z,0.10
2023-03-11T07:04:05.819Z,0.20
2023-03-11T07:06:35.117Z,0.30
2023-03-11T07:09:07.024Z,0.40
2023-03-11T07:11:35.863Z,0.50
2023-03-11T07:14:08.852Z,0.60
2023-03-11T07:16:39.727Z,0.80
2023-03-11T07:19:12.704Z,0.90
2023-03-11T07:21:39.775Z,1.00
2023-03-11T07:24:07.396Z,1.00
2023-03-11T07:26:35.675Z,1.10
2023-03-11T07:29:02.588Z,1.30
2023-03-11T07:31:32.455Z,1.30
2023-03-11T07:34:01.462Z,1.30
2023-03-11T07:36:28.465Z,1.40
2023-03-11T07:38:59.353Z,1.60
2023-03-11T07:41:26.922Z,1.80
2023-03-11T07:43:58.941Z,1.90
2023-03-11T07:46:27.593Z,2.00
2023-03-11T07:48:54.849Z,2.10
2023-03-11T07:51:24.301Z,1.90
2023-03-11T07:53:53.247Z,2.10
2023-03-11T07:56:21.351Z,2.20
2023-03-11T07:58:48.070Z,2.20
2023-03-11T08:01:17.399Z,2.30
2023-03-11T08:03:52.961Z,2.40
2023-03-11T08:06:22.129Z,2.50
2023-03-11T08:08:49.866Z,2.50
2023-03-11T08:11:17.440Z,2.60
2023-03-11T08:13:46.973Z,2.50
2023-03-11T08:16:16.257Z,2.70
2023-03-11T08:18:43.512Z,2.70
2023-03-11T08:21:13.576Z,2.60
2023-03-11T08:23:40.319Z,2.80
2023-03-11T08:26:09.048Z,2.90
2023-03-11T08:28:37.321Z,3.10
2023-03-11T08:31:11.394Z,3.20
2023-03-11T08:33:38.116Z,3.40
2023-03-11T08:36:05.251Z,3.50
2023-03-11T08:38:32.023Z,3.40
2023-03-11T08:40:58.939Z,3.50
2023-03-11T08:43:25.627Z,3.50
2023-03-11T08:45:52.378Z,3.40
2023-03-11T08:48:19.056Z,3.40
2023-03-11T08:50:53.745Z,3.50
2023-03-11T08:53:22.675Z,3.60
2023-03-11T08:55:50.588Z,3.70
2023-03-11T08:58:17.780Z,3.80
2023-03-11T09:00:44.566Z,3.90
2023-03-11T09:03:11.225Z,3.70
2023-03-11T09:05:37.961Z,3.40
2023-03-11T09:08:05.906Z,3.40
2023-03-11T09:10:32.706Z,3.30
2023-03-11T09:12:59.372Z,3.40
2023-03-11T09:15:26.137Z,3.60
2023-03-11T09:17:53.109Z,3.70
2023-03-11T09:20:20.039Z,3.40
2023-03-11T09:22:47.202Z,3.50
2023-03-11T09:25:14.721Z,3.50
2023-03-11T09:27:41.580Z,3.40
2023-03-11T09:30:10.245Z,3.50
2023-03-11T09:32:37.025Z,4.00
2023-03-11T09:35:04.227Z,4.40
2023-03-11T09:37:30.967Z,4.60
2023-03-11T09:39:57.672Z,4.30
2023-03-11T09:42:56.178Z,4.70
2023-03-11T09:45:30.443Z,4.20
2023-03-11T09:48:08.240Z,4.00
2023-03-11T09:50:43.150Z,4.10
2023-03-11T09:53:36.432Z,4.30
2023-03-11T09:56:07.265Z,4.50
2023-03-11T09:58:45.286Z,4.20
2023-03-11T10:01:24.736Z,4.00
2023-03-11T10:03:54.414Z,3.90
2023-03-11T10:06:26.500Z,4.20
2023-03-11T10:09:26.663Z,4.30
2023-03-11T10:12:17.176Z,4.60
2023-03-11T10:15:02.833Z,4.60
2023-03-11T10:18:01.172Z,5.30
2023-03-11T10:20:52.303Z,5.80
2023-03-11T10:23:46.533Z,5.10
2023-03-11T10:26:37.094Z,5.20
2023-03-11T10:29:25.751Z,5.30
2023-03-11T10:32:26.193Z,5.10
2023-03-11T10:35:00.465Z,5.00
2023-03-11T10:37:50.216Z,4.50
2023-03-11T10:40:29.471Z,4.50
2023-03-11T10:42:59.860Z,4.90
2023-03-11T10:45:28.719Z,5.50
2023-03-11T10:47:57.781Z,5.70
2023-03-11T10:50:24.541Z,5.90
2023-03-11T10:53:08.050Z,5.90
2023-03-11T10:55:35.266Z,6.00
2023-03-11T10:58:07.261Z,6.40
2023-03-11T11:00:34.138Z,6.80
2023-03-11T11:03:02.016Z,7.30
2023-03-11T11:05:30.140Z,7.60
2023-03-11T11:08:07.049Z,7.80
2023-03-11T11:10:37.659Z,7.70
2023-03-11T11:13:13.480Z,7.10
2023-03-11T11:16:20.806Z,7.00
2023-03-11T11:18:54.308Z,6.80
2023-03-11T11:21:34.200Z,6.40
2023-03-11T11:24:26.150Z,6.20
2023-03-11T11:27:11.768Z,5.80
2023-03-11T11:29:38.761Z,5.50
2023-03-11T11:32:25.597Z,5.10
2023-03-11T11:35:01.598Z,5.10
2023-03-11T11:37:34.708Z,5.00
2023-03-11T11:40:17.318Z,5.40
2023-03-11T11:42:49.399Z,5.30
2023-03-11T11:45:26.338Z,5.40
2023-03-11T11:47:57.892Z,5.80
2023-03-11T11:50:44.017Z,6.00
2023-03-11T11:53:34.873Z,5.90
2023-03-11T11:56:02.391Z,6.30
2023-03-11T11:58:30.484Z,6.90
2023-03-11T12:01:06.626Z,6.70
2023-03-11T12:03:58.375Z,6.90
2023-03-11T12:06:25.201Z,7.00
2023-03-11T12:09:01.414Z,7.40
2023-03-11T12:11:52.840Z,7.90
2023-03-11T12:14:35.696Z,7.40
2023-03-11T12:17:04.624Z,7.30
2023-03-11T12:19:43.079Z,7.10
2023-03-11T12:22:37.942Z,7.00
2023-03-11T12:25:23.072Z,6.70
2023-03-11T12:28:09.184Z,6.60
2023-03-11T12:30:40.830Z,6.20
2023-03-11T12:33:24.265Z,5.50
2023-03-11T12:35:55.912Z,5.30
2023-03-11T12:38:38.626Z,5.30
2023-03-11T12:41:28.211Z,5.60
2023-03-11T12:44:00.882Z,5.90
2023-03-11T12:47:00.363Z,6.10
2023-03-11T12:49:31.846Z,6.20
2023-03-11T12:52:08.978Z,5.80
2023-03-11T12:54:39.380Z,6.00
2023-03-11T12:57:17.826Z,6.00
2023-03-11T13:00:17.958Z,6.20
2023-03-11T13:03:12.892Z,6.70
2023-03-11T13:06:09.024Z,7.30
2023-03-11T13:08:46.141Z,7.80
2023-03-11T13:11:31.713Z,8.00
2023-03-11T13:14:21.632Z,8.20
2023-03-11T13:16:49.263Z,8.40
2023-03-11T13:19:31.966Z,8.30
2023-03-11T13:22:01.700Z,8.20
2023-03-11T13:24:31.444Z,8.00
2023-03-11T13:27:06.950Z,8.00
2023-03-11T13:30:10.518Z,7.40
2023-03-11T13:32:59.274Z,7.10
2023-03-11T13:35:47.536Z,7.70
2023-03-11T13:38:39.819Z,8.30
2023-03-11T13:41:17.419Z,8.30
2023-03-11T13:43:50.104Z,8.40
2023-03-11T13:46:19.758Z,8.60
2023-03-11T13:48:49.309Z,8.30
2023-03-11T13:51:48.345Z,8.40
2023-03-11T13:54:19.899Z,8.40
2023-03-11T13:56:55.442Z,8.00
2023-03-11T13:59:29.524Z,7.60
2023-03-11T14:01:59.464Z,7.60
2023-03-11T14:04:31.857Z,7.80
2023-03-11T14:06:59.463Z,7.80
2023-03-11T14:09:28.040Z,7.80
2023-03-11T14:12:03.148Z,7.80
2023-03-11T14:14:56.148Z,7.90
2023-03-11T14:17:22.864Z,7.70
2023-03-11T14:20:04.700Z,7.30
2023-03-11T14:22:32.477Z,7.40
2023-03-11T14:25:10.158Z,7.10
2023-03-11T14:27:45.068Z,6.90
2023-03-11T14:30:20.401Z,6.90
2023-03-11T14:32:57.344Z,6.90
2023-03-11T14:35:24.231Z,7.10
2023-03-11T14:37:50.902Z,6.70
2023-03-11T14:40:25.612Z,6.60
2023-03-11T14:42:54.813Z,6.40
2023-03-11T14:45:28.640Z,6.30
2023-03-11T14:47:59.180Z,6.10
2023-03-11T14:50:28.790Z,6.00
2023-03-11T14:53:04.626Z,5.90
2023-03-11T14:55:52.483Z,5.90
2023-03-11T14:58:37.035Z,5.90
2023-03-11T15:01:24.898Z,5.70
2023-03-11T15:04:27.446Z,6.10
2023-03-11T15:06:55.324Z,6.30
2023-03-11T15:09:24.030Z,6.60
2023-03-11T15:11:59.662Z,6.80
2023-03-11T15:14:31.791Z,6.80
2023-03-11T15:17:34.696Z,6.10
2023-03-11T15:20:07.353Z,5.90
2023-03-11T15:22:39.648Z,6.00
2023-03-11T15:25:18.865Z,6.00
2023-03-11T15:27:46.295Z,6.10
2023-03-11T15:30:25.976Z,6.20
2023-03-11T15:32:53.524Z,6.20
2023-03-11T15:35:23.113Z,6.00
2023-03-11T15:38:12.035Z,5.90
2023-03-11T15:40:45.431Z,6.00
2023-03-11T15:43:15.551Z,6.10
2023-03-11T15:45:44.091Z,5.90
2023-03-11T15:48:12.689Z,6.00
2023-03-11T15:50:56.963Z,6.00
2023-03-11T15:53:25.564Z,5.80
2023-03-11T15:55:54.319Z,5.70
2023-03-11T15:58:21.355Z,5.70
2023-03-11T16:00:53.674Z,5.50
2023-03-11T16:03:20.587Z,5.50
2023-03-11T16:05:47.868Z,5.70
2023-03-11T16:08:14.644Z,5.80
2023-03-11T16:10:41.756Z,5.80
2023-03-11T16:13:15.640Z,5.70
2023-03-11T16:15:43.213Z,5.40
2023-03-11T16:18:10.454Z,5.50
2023-03-11T16:20:43.844Z,5.40
2023-03-11T16:23:17.897Z,5.00
2023-03-11T16:25:45.085Z,4.80
2023-03-11T16:28:14.908Z,4.90
2023-03-11T16:30:41.973Z,4.70
2023-03-11T16:33:08.757Z,4.70
2023-03-11T16:35:35.508Z,4.60
2023-03-11T16:38:02.286Z,4.60
2023-03-11T16:40:29.200Z,4.70
2023-03-11T16:43:11.027Z,4.60
2023-03-11T16:45:37.716Z,4.50
2023-03-11T16:48:05.524Z,4.40
2023-03-11T16:50:34.076Z,4.40
2023-03-11T16:53:00.882Z,4.40
2023-03-11T16:55:28.656Z,4.30
2023-03-11T16:57:57.294Z,4.30
2023-03-11T17:00:24.956Z,4.30
2023-03-11T17:02:52.168Z,4.30
2023-03-11T17:05:19.061Z,4.30
2023-03-11T17:07:45.923Z,4.20
2023-03-11T17:10:13.033Z,4.30
2023-03-11T17:12:39.774Z,4.20
2023-03-11T17:15:07.328Z,4.00
2023-03-11T17:17:34.001Z,4.00
2023-03-11T17:20:00.724Z,3.90
2023-03-11T17:22:27.477Z,3.90
2023-03-11T17:24:54.236Z,3.80
2023-03-11T17:27:21.087Z,3.70
2023-03-11T17:29:47.748Z,3.40
2023-03-11T17:32:17.456Z,3.30
2023-03-11T17:34:44.414Z,3.20
2023-03-11T17:37:11.196Z,3.00
2023-03-11T17:39:37.893Z,3.00
2023-03-11T17:42:04.835Z,2.70
2023-03-11T17:44:44.572Z,2.80
2023-03-11T17:47:19.425Z,2.80
2023-03-11T17:49:46.136Z,2.80
2023-03-11T17:52:12.995Z,2.80
2023-03-11T17:54:39.771Z,2.80
2023-03-11T17:57:06.731Z,2.70
2023-03-11T17:59:33.429Z,2.80
2023-03-11T18:02:00.233Z,2.70
2023-03-11T18:04:27.022Z,2.70
2023-03-11T18:06:54.733Z,2.60
2023-03-11T18:09:21.767Z,2.60
2023-03-11T18:11:48.597Z,2.50
2023-03-11T18:14:15.255Z,2.30
2023-03-11T18:16:41.950Z,2.20
2023-03-11T18:19:08.672Z,2.30
2023-03-11T18:21:35.346Z,2.20
2023-03-11T18:24:02.088Z,2.20
2023-03-11T18:26:29.928Z,2.20
2023-03-11T18:28:57.804Z,2.10
2023-03-11T18:31:26.061Z,2.10
2023-03-11T18:33:55.701Z,2.00
2023-03-11T18:36:25.672Z,2.00
2023-03-11T18:38:53.737Z,2.00
2023-03-11T18:41:21.048Z,1.90
2023-03-11T18:43:51.225Z,1.80
2023-03-11T18:46:18.027Z,1.70
2023-03-11T18:48:44.850Z,1.60
2023-03-11T18:51:12.634Z,1.60
2023-03-11T18:53:41.245Z,1.60
2023-03-11T18:56:13.216Z,1.50
2023-03-11T18:58:40.016Z,1.60
2023-03-11T19:01:09.159Z,1.50
2023-03-11T19:03:36.057Z,1.50
2023-03-11T19:06:03.329Z,1.40
2023-03-11T19:08:30.232Z,1.40
2023-03-11T19:10:57.144Z,1.30
2023-03-11T19:13:24.624Z,1.30
2023-03-11T19:15:53.443Z,1.30
2023-03-11T19:18:20.224Z,1.20
2023-03-11T19:20:56.352Z,1.30
2023-03-11T19:23:23.007Z,1.20
2023-03-11T19:26:02.476Z,1.20
2023-03-11T19:28:29.862Z,1.20
2023-03-11T19:30:58.216Z,1.10
2023-03-11T19:33:25.913Z,1.00
2023-03-11T19:36:01.042Z,0.90
2023-03-11T19:38:28.707Z,0.90
2023-03-11T19:41:05.596Z,0.90
2023-03-11T19:43:33.006Z,0.90
2023-03-11T19:45:59.752Z,0.90
2023-03-11T19:48:26.501Z,0.90
2023-03-11T19:50:53.910Z,0.90
2023-03-11T19:53:23.246Z,0.90
2023-03-11T19:55:55.401Z,0.90
2023-03-11T19:58:23.746Z,0.90
2023-03-11T20:00:50.733Z,0.90
2023-03-11T20:03:18.104Z,0.90
2023-03-11T20:05:47.134Z,1.00
2023-03-11T20:08:16.735Z,0.90
2023-03-11T20:10:46.243Z,1.00
2023-03-11T20:13:14.166Z,0.90
2023-03-11T20:15:40.925Z,0.80
2023-03-11T20:18:07.945Z,0.70
2023-03-11T20:20:37.214Z,0.60
2023-03-11T20:23:04.096Z,0.60
2023-03-11T20:25:32.339Z,0.50
2023-03-11T20:27:59.926Z,0.50
2023-03-11T20:30:27.770Z,0.60
2023-03-11T20:32:54.732Z,0.60
2023-03-11T20:35:22.020Z,0.50
2023-03-11T20:37:49.020Z,0.50
2023-03-11T20:40:17.353Z,0.40
2023-03-11T20:42:46.771Z,0.50
2023-03-11T20:45:21.630Z,0.50
2023-03-11T20:47:49.993Z,0.50
2023-03-11T20:50:17.133Z,0.40
2023-03-11T20:52:43.895Z,0.30
2023-03-11T20:55:11.360Z,0.30
2023-03-11T20:57:39.260Z,0.40
2023-03-11T21:00:11.112Z,0.40
2023-03-11T21:02:39.145Z,0.40
2023-03-11T21:05:07.549Z,0.30
2023-03-11T21:07:34.296Z,0.30
2023-03-11T21:10:02.097Z,0.30
2023-03-11T21:12:31.117Z,0.30
2023-03-11T21:14:58.176Z,0.30
2023-03-11T21:17:25.081Z,0.30
2023-03-11T21:19:51.846Z,0.20
2023-03-11T21:22:19.940Z,0.20
2023-03-11T21:24:54.363Z,0.20
2023-03-11T21:27:26.383Z,0.20
2023-03-11T21:29:55.539Z,0.20
2023-03-11T21:32:23.156Z,0.20
2023-03-11T21:34:50.262Z,0.20
2023-03-11T21:37:17.328Z,0.20
2023-03-11T21:39:44.065Z,0.10
2023-03-11T21:42:10.787Z,0.00
2023-03-11T21:44:37.732Z,-0.10
2023-03-11T21:47:05.487Z,0.00
2023-03-11T21:49:32.302Z,0.00
2023-03-11T21:52:01.994Z,0.00
2023-03-11T21:54:29.046Z,0.00
2023-03-11T21:56:55.822Z,0.00
2023-03-11T21:59:25.380Z,-0.10
2023-03-11T22:01:52.744Z,-0.10
2023-03-11T22:04:19.826Z,-0.10
2023-03-11T22:06:46.592Z,-0.10
2023-03-11T22:09:13.411Z,-0.10
2023-03-11T22:11:40.263Z,-0.20
2023-03-11T22:14:06.975Z,-0.30
2023-03-11T22:16:33.782Z,-0.30
2023-03-11T22:19:00.771Z,-0.20
2023-03-11T22:21:27.710Z,-0.20
2023-03-11T22:23:54.389Z,-0.20
2023-03-11T22:26:21.198Z,-0.20
2023-03-11T22:28:47.936Z,-0.30
2023-03-11T22:31:15.626Z,-0.30
2023-03-11T22:33:42.380Z,-0.40
2023-03-11T22:36:10.045Z,-0.40
2023-03-11T22:38:37.496Z,-0.40
2023-03-11T22:41:07.578Z,-0.30
2023-03-11T22:43:35.627Z,-0.30
2023-03-11T22:46:02.792Z,-0.30
2023-03-11T22:48:29.530Z,-0.30
2023-03-11T22:50:56.713Z,-0.30
2023-03-11T22:53:24.853Z,-0.40
2023-03-11T22:55:52.636Z,-0.30
2023-03-11T22:58:19.326Z,-0.50
2023-03-11T23:00:46.424Z,-0.50
2023-03-11T23:03:14.998Z,-0.50
2023-03-11T23:05:42.268Z,-0.40
2023-03-11T23:08:14.805Z,-0.40
2023-03-11T23:10:46.357Z,-0.50
2023-03-11T23:13:13.413Z,-0.50
2023-03-11T23:15:41.593Z,-0.50
2023-03-11T23:18:08.668Z,-0.50
2023-03-11T23:20:36.858Z,-0.50
2023-03-11T23:23:04.502Z,-0.60
2023-03-11T23:25:32.037Z,-0.60
2023-03-11T23:28:00.579Z,-0.60
2023-03-11T23:30:27.277Z,-0.60
2023-03-11T23:32:54.034Z,-0.60
2023-03-11T23:35:20.834Z,-0.60
2023-03-11T23:37:49.218Z,-0.50
2023-03-11T23:40:16.342Z,-0.60
2023-03-11T23:42:43.497Z,-0.50
2023-03-11T23:45:10.745Z,-0.50
2023-03-11T23:47:37.465Z,-0.60
2023-03-11T23:50:04.993Z,-0.50
2023-03-11T23:52:31.717Z,-0.40
2023-03-11T23:54:58.434Z,-0.40
2023-03-11T23:57:25.109Z,-0.40
2023-03-11T23:59:51.792Z,-0.40
